createdAt,value
2022-10-29T00:00:44.904Z,101421.09
2022-10-29T00:03:16.348Z,101423.19
2022-10-29T00:05:42.664Z,101410.50
2022-10-29T00:08:09.069Z,101415.31
2022-10-29T00:10:35.457Z,101420.72
2022-10-29T00:13:01.826Z,101416.38
2022-10-29T00:15:28.067Z,101413.91
2022-10-29T00:17:54.677Z,101398.72
2022-10-29T00:20:21.448Z,101397.09
2022-10-29T00:22:47.776Z,101404.63
2022-10-29T00:25:14.126Z,101410.88
2022-10-29T00:27:40.506Z,101415.69
2022-10-29T00:30:06.836Z,101420.84
2022-10-29T00:32:33.177Z,101415.69
2022-10-29T00:34:59.764Z,101415.09
2022-10-29T00:37:26.059Z,101412.41
2022-10-29T00:39:53.107Z,101424.28
2022-10-29T00:42:19.597Z,101419.91
2022-10-29T00:44:45.863Z,101415.81
2022-10-29T00:47:12.133Z,101420.19
2022-10-29T00:49:38.457Z,101420.41
2022-10-29T00:52:05.430Z,101416.88
2022-10-29T00:54:31.695Z,101420.66
2022-10-29T00:56:58.015Z,101422.53
2022-10-29T00:59:24.352Z,101422.75
2022-10-29T01:01:50.714Z,101418.19
2022-10-29T01:04:17.327Z,101417.63
2022-10-29T01:06:43.866Z,101413.25
2022-10-29T01:09:10.196Z,101421.59
2022-10-29T01:11:36.654Z,101421.34
2022-10-29T01:14:03.799Z,101415.59
2022-10-29T01:16:30.140Z,101428.06
2022-10-29T01:18:56.575Z,101423.72
2022-10-29T01:21:22.982Z,101428.53
2022-10-29T01:23:49.350Z,101433.16
2022-10-29T01:26:15.698Z,101441.25
2022-10-29T01:28:42.081Z,101437.97
2022-10-29T01:31:08.444Z,101445.28
2022-10-29T01:33:34.712Z,101442.81
2022-10-29T01:36:01.199Z,101444.66
2022-10-29T01:38:27.660Z,101450.09
2022-10-29T01:40:53.962Z,101450.56
2022-10-29T01:45:51.851Z,101448.91
2022-10-29T01:48:18.079Z,101451.03
2022-10-29T01:50:44.446Z,101463.50
2022-10-29T01:53:10.717Z,101461.88
2022-10-29T01:55:37.009Z,101457.75
2022-10-29T01:58:03.291Z,101459.63
2022-10-29T02:00:29.995Z,101472.31
2022-10-29T02:02:56.925Z,101468.16
2022-10-29T02:05:23.543Z,101463.59
2022-10-29T02:07:49.903Z,101465.72
2022-10-29T02:10:16.374Z,101453.00
2022-10-29T02:12:42.839Z,101458.41
2022-10-29T02:15:09.362Z,101447.81
2022-10-29T02:17:35.654Z,101450.78
2022-10-29T02:20:02.004Z,101451.03
2022-10-29T02:22:28.816Z,101451.81
2022-10-29T02:24:55.926Z,101456.44
2022-10-29T02:27:22.342Z,101454.19
2022-10-29T02:29:48.877Z,101460.44
2022-10-29T02:32:15.273Z,101462.31
2022-10-29T02:34:41.546Z,101468.78
2022-10-29T02:37:07.851Z,101479.84
2022-10-29T02:39:34.138Z,101484.41
2022-10-29T02:42:00.440Z,101485.47
2022-10-29T02:44:26.783Z,101486.53
2022-10-29T02:46:53.204Z,101491.09
2022-10-29T02:49:19.458Z,101486.75
2022-10-29T02:51:45.962Z,101482.66
2022-10-29T02:54:12.383Z,101483.47
2022-10-29T02:56:38.674Z,101483.47
2022-10-29T02:59:07.710Z,101484.53
2022-10-29T03:01:37.553Z,101491.84
2022-10-29T03:04:04.086Z,101494.75
2022-10-29T03:06:30.367Z,101508.28
2022-10-29T03:08:56.768Z,101509.34
2022-10-29T03:11:23.046Z,101503.34
2022-10-29T03:13:49.559Z,101510.38
2022-10-29T03:16:15.999Z,101518.72
2022-10-29T03:18:42.319Z,101518.97
2022-10-29T03:21:08.576Z,101516.28
2022-10-29T03:23:35.099Z,101511.91
2022-10-29T03:26:01.444Z,101521.09
2022-10-29T03:28:27.763Z,101524.00
2022-10-29T03:30:54.133Z,101526.50
2022-10-29T03:33:20.939Z,101524.00
2022-10-29T03:35:47.480Z,101530.25
2022-10-29T03:38:13.848Z,101522.38
2022-10-29T03:40:40.244Z,101530.03
2022-10-29T03:43:06.478Z,101523.22
2022-10-29T03:45:32.735Z,101526.13
2022-10-29T03:47:59.210Z,101518.59
2022-10-29T03:50:25.767Z,101520.50
2022-10-29T03:52:52.128Z,101518.59
2022-10-29T03:55:18.536Z,101518.84
2022-10-29T03:57:44.950Z,101516.13
2022-10-29T04:00:11.283Z,101510.72
2022-10-29T04:02:38.050Z,101519.91
2022-10-29T04:05:04.497Z,101513.91
2022-10-29T04:07:30.809Z,101516.38
2022-10-29T04:09:57.285Z,101526.38
2022-10-29T04:12:23.706Z,101526.38
2022-10-29T04:17:21.314Z,101537.41
2022-10-29T04:19:47.847Z,101534.94
2022-10-29T04:28:41.938Z,101534.94
2022-10-29T04:30:33.392Z,101519.78
2022-10-29T04:32:59.993Z,101527.06
2022-10-29T04:35:26.675Z,101521.66
2022-10-29T04:37:52.940Z,101523.78
2022-10-29T04:40:19.244Z,101534.59
2022-10-29T04:42:45.850Z,101533.75
2022-10-29T04:45:12.156Z,101545.63
2022-10-29T04:47:38.439Z,101535.88
2022-10-29T04:50:05.751Z,101533.75
2022-10-29T04:52:32.307Z,101533.75
2022-10-29T04:54:59.464Z,101530.47
2022-10-29T04:57:25.769Z,101533.16
2022-10-29T04:59:52.180Z,101537.50
2022-10-29T05:02:18.456Z,101530.47
2022-10-29T05:04:44.918Z,101531.53
2022-10-29T05:07:11.231Z,101535.25
2022-10-29T05:09:37.522Z,101529.06
2022-10-29T05:12:03.774Z,101529.06
2022-10-29T05:14:30.142Z,101526.56
2022-10-29T05:16:56.434Z,101521.16
2022-10-29T05:19:22.893Z,101530.09
2022-10-29T05:21:49.350Z,101535.50
2022-10-29T05:24:15.648Z,101535.50
2022-10-29T05:26:42.260Z,101533.03
2022-10-29T05:29:08.718Z,101534.69
2022-10-29T05:31:35.094Z,101536.56
2022-10-29T05:34:01.492Z,101532.22
2022-10-29T05:36:28.159Z,101537.63
2022-10-29T05:38:54.476Z,101544.88
2022-10-29T05:41:20.751Z,101554.66
2022-10-29T05:43:47.280Z,101544.66
2022-10-29T05:46:13.628Z,101550.91
2022-10-29T05:48:39.880Z,101536.78
2022-10-29T05:51:06.333Z,101533.03
2022-10-29T05:53:32.832Z,101533.63
2022-10-29T05:55:59.313Z,101531.38
2022-10-29T05:58:25.662Z,101531.38
2022-10-29T06:00:51.978Z,101533.03
2022-10-29T06:03:18.326Z,101531.38
2022-10-29T06:05:44.691Z,101531.16
2022-10-29T06:08:11.031Z,101530.09
2022-10-29T06:10:37.571Z,101537.16
2022-10-29T06:13:04.415Z,101546.06
2022-10-29T06:15:30.987Z,101549.84
2022-10-29T06:17:57.770Z,101556.09
2022-10-29T06:20:24.411Z,101553.16
2022-10-29T06:22:50.704Z,101552.56
2022-10-29T06:25:17.040Z,101559.25
2022-10-29T06:27:43.448Z,101567.13
2022-10-29T06:30:09.743Z,101566.06
2022-10-29T06:32:36.417Z,101559.25
2022-10-29T06:35:02.740Z,101559.81
2022-10-29T06:37:29.004Z,101564.28
2022-10-29T06:39:56.995Z,101553.47
2022-10-29T06:42:23.577Z,101558.41
2022-10-29T06:44:49.873Z,101568.63
2022-10-29T06:47:16.204Z,101581.09
2022-10-29T06:49:42.545Z,101575.69
2022-10-29T06:52:08.964Z,101578.84
2022-10-29T06:54:35.468Z,101586.16
2022-10-29T06:57:01.778Z,101588.00
2022-10-29T06:59:28.028Z,101588.00
2022-10-29T07:01:55.226Z,101590.13
2022-10-29T07:04:21.595Z,101599.88
2022-10-29T07:06:47.909Z,101599.88
2022-10-29T07:09:14.235Z,101598.25
2022-10-29T07:11:40.570Z,101596.56
2022-10-29T07:14:06.918Z,101596.56
2022-10-29T07:16:33.524Z,101599.28
2022-10-29T07:18:59.791Z,101604.69
2022-10-29T07:21:26.090Z,101601.41
2022-10-29T07:23:53.585Z,101596.00
2022-10-29T07:26:20.284Z,101605.75
2022-10-29T07:28:46.567Z,101599.75
2022-10-29T07:31:12.900Z,101589.53
2022-10-29T07:33:39.130Z,101590.34
2022-10-29T07:36:05.354Z,101589.31
2022-10-29T07:38:31.875Z,101589.53
2022-10-29T07:40:58.313Z,101594.34
2022-10-29T07:43:24.673Z,101587.88
2022-10-29T07:45:50.941Z,101603.03
2022-10-29T07:48:17.191Z,101605.97
2022-10-29T07:50:43.482Z,101601.16
2022-10-29T07:53:09.744Z,101599.75
2022-10-29T07:55:36.039Z,101586.25
2022-10-29T07:58:02.434Z,101585.19
2022-10-29T08:00:28.969Z,101576.84
2022-10-29T08:02:55.473Z,101596.00
2022-10-29T08:05:21.900Z,101599.75
2022-10-29T08:07:48.242Z,101585.19
2022-10-29T08:10:15.367Z,101576.50
2022-10-29T08:12:41.679Z,101571.09
2022-10-29T08:15:07.940Z,101565.41
2022-10-29T08:17:34.278Z,101568.75
2022-10-29T08:20:00.622Z,101575.44
2022-10-29T08:22:27.074Z,101589.25
2022-10-29T08:24:53.833Z,101590.78
2022-10-29T08:27:20.087Z,101592.63
2022-10-29T08:29:47.214Z,101589.00
2022-10-29T08:32:13.495Z,101592.72
2022-10-29T08:34:40.541Z,101597.31
2022-10-29T08:37:07.237Z,101587.16
2022-10-29T08:39:34.334Z,101600.44
2022-10-29T08:42:00.687Z,101601.50
2022-10-29T08:44:27.584Z,101602.06
2022-10-29T08:46:53.866Z,101599.59
2022-10-29T08:49:20.229Z,101604.78
2022-10-29T08:51:46.495Z,101601.03
2022-10-29T08:59:35.427Z,101598.97
2022-10-29T09:02:01.759Z,101590.84
2022-10-29T09:04:28.253Z,101596.84
2022-10-29T09:06:54.524Z,101602.72
2022-10-29T09:09:21.228Z,101606.06
2022-10-29T09:11:47.590Z,101625.19
2022-10-29T09:14:13.887Z,101615.88
2022-10-29T09:19:13.332Z,101621.16
2022-10-29T09:21:39.626Z,101623.63
2022-10-29T09:24:05.894Z,101625.50
2022-10-29T09:26:32.270Z,101629.25
2022-10-29T09:28:58.557Z,101635.50
2022-10-29T09:31:24.906Z,101630.31
2022-10-29T09:33:51.305Z,101625.75
2022-10-29T09:36:17.612Z,101634.66
2022-10-29T09:38:43.904Z,101632.78
2022-10-29T09:41:10.361Z,101629.03
2022-10-29T09:43:36.611Z,101623.63
2022-10-29T09:46:02.894Z,101626.34
2022-10-29T09:48:29.235Z,101628.81
2022-10-29T09:50:55.638Z,101622.56
2022-10-29T09:53:21.971Z,101624.00
2022-10-29T09:55:48.487Z,101622.13
2022-10-29T09:58:14.823Z,101616.94
2022-10-29T10:00:41.161Z,101607.78
2022-10-29T10:03:07.653Z,101607.19
2022-10-29T10:05:34.164Z,101606.50
2022-10-29T10:08:02.126Z,101603.34
2022-10-29T10:10:28.655Z,101608.94
2022-10-29T10:15:45.322Z,101606.16
2022-10-29T10:18:11.726Z,101602.63
2022-10-29T10:20:38.163Z,101611.31
2022-10-29T10:23:04.424Z,101602.78
2022-10-29T10:25:30.752Z,101604.41
2022-10-29T10:27:57.393Z,101601.13
2022-10-29T10:30:24.051Z,101592.41
2022-10-29T10:32:50.415Z,101589.25
2022-10-29T10:35:16.717Z,101587.41
2022-10-29T10:40:34.008Z,101589.84
2022-10-29T10:43:03.089Z,101577.16
2022-10-29T10:45:33.133Z,101579.88
2022-10-29T10:48:00.323Z,101579.63
2022-10-29T10:50:27.011Z,101577.75
2022-10-29T10:52:53.470Z,101587.75
2022-10-29T10:55:19.925Z,101579.63
2022-10-29T10:57:46.681Z,101591.03
2022-10-29T11:00:12.919Z,101576.50
2022-10-29T11:02:39.275Z,101585.41
2022-10-29T11:05:07.964Z,101577.53
2022-10-29T11:07:34.568Z,101573.78
2022-10-29T11:10:00.919Z,101563.56
2022-10-29T11:12:27.589Z,101561.91
2022-10-29T11:14:53.974Z,101561.44
2022-10-29T11:17:20.327Z,101571.66
2022-10-29T11:19:46.633Z,101568.97
2022-10-29T11:24:46.651Z,101569.81
2022-10-29T11:27:13.034Z,101566.84
2022-10-29T11:29:39.416Z,101568.50
2022-10-29T11:32:05.705Z,101559.34
2022-10-29T11:34:32.513Z,101560.97
2022-10-29T11:36:58.951Z,101555.34
2022-10-29T11:39:25.288Z,101550.16
2022-10-29T11:41:51.662Z,101544.53
2022-10-29T11:44:18.077Z,101548.88
2022-10-29T11:46:44.518Z,101551.34
2022-10-29T11:49:10.985Z,101546.78
2022-10-29T11:51:37.364Z,101539.97
2022-10-29T11:54:03.923Z,101541.59
2022-10-29T11:56:30.273Z,101537.03
2022-10-29T11:58:56.673Z,101532.22
2022-10-29T12:01:23.069Z,101540.09
2022-10-29T12:03:49.672Z,101535.50
2022-10-29T12:08:51.931Z,101520.09
2022-10-29T12:11:19.606Z,101511.16
2022-10-29T12:13:46.235Z,101503.66
2022-10-29T12:16:12.535Z,101500.13
2022-10-29T12:18:40.495Z,101506.38
2022-10-29T12:21:06.781Z,101499.53
2022-10-29T12:23:33.119Z,101493.31
2022-10-29T12:25:59.455Z,101495.78
2022-10-29T12:28:25.770Z,101491.22
2022-10-29T12:30:52.062Z,101487.66
2022-10-29T12:33:18.341Z,101486.03
2022-10-29T12:35:44.789Z,101485.41
2022-10-29T12:38:11.122Z,101487.31
2022-10-29T12:40:37.351Z,101484.63
2022-10-29T12:43:03.917Z,101486.25
2022-10-29T12:45:30.256Z,101485.41
2022-10-29T12:47:56.772Z,101473.19
2022-10-29T12:50:23.263Z,101472.16
2022-10-29T12:52:49.660Z,101475.66
2022-10-29T12:55:15.920Z,101480.28
2022-10-29T12:57:42.206Z,101478.38
2022-10-29T13:00:08.870Z,101471.91
2022-10-29T13:02:35.225Z,101471.31
2022-10-29T13:05:01.652Z,101469.19
2022-10-29T13:07:28.093Z,101463.00
2022-10-29T13:09:54.460Z,101464.06
2022-10-29T13:12:20.760Z,101461.09
2022-10-29T13:14:47.107Z,101463.22
2022-10-29T13:17:13.410Z,101463.22
2022-10-29T13:19:40.001Z,101456.97
2022-10-29T13:22:06.344Z,101459.69
2022-10-29T13:24:32.724Z,101458.88
2022-10-29T13:26:59.004Z,101460.53
2022-10-29T13:29:25.356Z,101463.22
2022-10-29T13:31:51.872Z,101461.09
2022-10-29T13:34:18.201Z,101458.38
2022-10-29T13:36:44.550Z,101461.09
2022-10-29T13:39:11.107Z,101460.06
2022-10-29T13:41:37.487Z,101460.28
2022-10-29T13:44:03.809Z,101461.09
2022-10-29T13:46:30.071Z,101459.22
2022-10-29T13:48:56.384Z,101457.34
2022-10-29T13:51:22.788Z,101452.97
2022-10-29T13:53:49.177Z,101451.13
2022-10-29T13:56:15.770Z,101451.94
2022-10-29T13:58:42.077Z,101452.97
2022-10-29T14:01:08.438Z,101447.56
2022-10-29T14:03:34.856Z,101450.06
2022-10-29T14:06:01.202Z,101445.72
2022-10-29T14:08:27.511Z,101444.88
2022-10-29T14:10:54.050Z,101444.06
2022-10-29T14:13:23.686Z,101445.94
2022-10-29T14:15:51.375Z,101451.34
2022-10-29T14:18:17.741Z,101455.13
2022-10-29T14:20:44.084Z,101448.88
2022-10-29T14:23:10.432Z,101440.75
2022-10-29T14:25:38.086Z,101435.34
2022-10-29T14:28:06.444Z,101434.56
2022-10-29T14:30:32.896Z,101432.06
2022-10-29T14:32:59.392Z,101424.78
2022-10-29T14:35:25.946Z,101428.31
2022-10-29T14:37:52.222Z,101423.13
2022-10-29T14:40:18.981Z,101420.44
2022-10-29T14:42:45.256Z,101424.19
2022-10-29T14:45:11.673Z,101424.19
2022-10-29T14:47:38.107Z,101423.34
2022-10-29T14:50:04.421Z,101422.56
2022-10-29T14:52:30.867Z,101422.56
2022-10-29T14:54:57.252Z,101420.09
2022-10-29T14:57:23.714Z,101417.38
2022-10-29T14:59:50.093Z,101417.16
2022-10-29T15:05:07.234Z,101416.53
2022-10-29T15:07:34.510Z,101421.16
2022-10-29T15:10:01.935Z,101427.97
2022-10-29T15:12:28.323Z,101430.06
2022-10-29T15:14:54.708Z,101431.69
2022-10-29T15:17:21.035Z,101433.59
2022-10-29T15:19:47.374Z,101423.84
2022-10-29T15:22:13.852Z,101427.34
2022-10-29T15:24:40.163Z,101421.16
2022-10-29T15:27:06.660Z,101421.94
2022-10-29T15:29:36.213Z,101416.53
2022-10-29T15:32:04.914Z,101413.03
2022-10-29T15:34:31.294Z,101413.28
2022-10-29T15:36:57.940Z,101405.97
2022-10-29T15:39:24.204Z,101420.31
2022-10-29T15:41:50.569Z,101419.47
2022-10-29T15:44:16.983Z,101410.56
2022-10-29T15:46:43.287Z,101410.56
2022-10-29T15:49:09.610Z,101411.63
2022-10-29T15:51:36.010Z,101411.63
2022-10-29T15:54:02.344Z,101402.06
2022-10-29T15:56:28.589Z,101393.75
2022-10-29T15:58:54.951Z,101390.25
2022-10-29T16:01:22.086Z,101400.22
2022-10-29T16:03:48.736Z,101394.81
2022-10-29T16:06:15.388Z,101396.94
2022-10-29T16:08:41.670Z,101390.69
2022-10-29T16:11:07.958Z,101401.50
2022-10-29T16:13:34.752Z,101394.22
2022-10-29T16:16:01.048Z,101400.66
2022-10-29T16:18:27.847Z,101400.66
2022-10-29T16:20:54.114Z,101401.72
2022-10-29T16:23:20.450Z,101407.75
2022-10-29T16:25:46.836Z,101415.00
2022-10-29T16:28:13.130Z,101405.84
2022-10-29T16:33:10.797Z,101413.94
2022-10-29T16:35:37.070Z,101412.09
2022-10-29T16:38:03.512Z,101417.50
2022-10-29T16:40:29.964Z,101422.28
2022-10-29T16:42:57.072Z,101413.16
2022-10-29T16:45:23.719Z,101410.44
2022-10-29T16:47:49.990Z,101423.69
2022-10-29T16:50:16.277Z,101427.47
2022-10-29T16:52:42.599Z,101424.75
2022-10-29T16:55:08.911Z,101431.81
2022-10-29T16:57:35.191Z,101433.69
2022-10-29T17:00:01.613Z,101441.59
2022-10-29T17:02:27.973Z,101428.88
2022-10-29T17:04:54.417Z,101425.59
2022-10-29T17:07:20.743Z,101428.88
2022-10-29T17:09:47.094Z,101419.72
2022-10-29T17:12:13.382Z,101414.06
2022-10-29T17:14:39.619Z,101410.56
2022-10-29T17:17:05.887Z,101407.63
2022-10-29T17:19:32.187Z,101408.44
2022-10-29T17:21:58.543Z,101411.38
2022-10-29T17:24:24.807Z,101410.34
2022-10-29T17:26:51.396Z,101406.78
2022-10-29T17:29:17.747Z,101408.44
2022-10-29T17:31:44.081Z,101410.56
2022-10-29T17:34:10.519Z,101412.78
2022-10-29T17:36:36.830Z,101419.84
2022-10-29T17:39:03.497Z,101421.94
2022-10-29T17:41:29.942Z,101423.00
2022-10-29T17:43:56.599Z,101420.88
2022-10-29T17:46:23.166Z,101428.19
2022-10-29T17:48:50.032Z,101421.16
2022-10-29T17:51:16.335Z,101422.78
2022-10-29T17:53:42.655Z,101419.25
2022-10-29T17:56:08.967Z,101415.75
2022-10-29T17:58:35.248Z,101401.97
2022-10-29T18:01:01.829Z,101407.63
2022-10-29T18:03:28.247Z,101418.44
2022-10-29T18:05:54.492Z,101415.97
2022-10-29T18:08:20.817Z,101423.00
2022-10-29T18:10:47.120Z,101429.25
2022-10-29T18:13:13.422Z,101420.31
2022-10-29T18:15:39.856Z,101423.84
2022-10-29T18:18:06.385Z,101422.19
2022-10-29T18:20:32.699Z,101430.53
2022-10-29T18:22:59.359Z,101417.03
2022-10-29T18:25:26.040Z,101413.50
2022-10-29T18:27:52.318Z,101409.38
2022-10-29T18:30:18.728Z,101421.00
2022-10-29T18:32:45.478Z,101420.19
2022-10-29T18:35:11.784Z,101421.25
2022-10-29T18:37:38.174Z,101421.25
2022-10-29T18:40:04.421Z,101426.06
2022-10-29T18:42:30.757Z,101424.41
2022-10-29T18:44:57.132Z,101426.88
2022-10-29T18:47:23.658Z,101424.41
2022-10-29T18:49:50.535Z,101422.56
2022-10-29T18:52:16.805Z,101414.66
2022-10-29T18:54:43.146Z,101404.66
2022-10-29T18:57:09.522Z,101409.50
2022-10-29T18:59:35.855Z,101407.84
2022-10-29T19:02:02.256Z,101410.28
2022-10-29T19:04:28.759Z,101391.16
2022-10-29T19:06:54.998Z,101396.56
2022-10-29T19:09:21.281Z,101396.22
2022-10-29T19:11:47.510Z,101404.09
2022-10-29T19:14:14.058Z,101402.44
2022-10-29T19:16:40.967Z,101403.25
2022-10-29T19:19:07.766Z,101405.97
2022-10-29T19:21:34.520Z,101404.88
2022-10-29T19:24:00.847Z,101415.69
2022-10-29T19:26:27.301Z,101408.09
2022-10-29T19:28:53.937Z,101401.63
2022-10-29T19:31:20.384Z,101398.31
2022-10-29T19:33:46.683Z,101393.16
2022-10-29T19:36:12.965Z,101402.06
2022-10-29T19:38:39.305Z,101401.00
2022-10-29T19:41:05.696Z,101387.75
2022-10-29T19:43:32.366Z,101393.16
2022-10-29T19:45:58.816Z,101392.91
2022-10-29T19:48:25.110Z,101388.56
2022-10-29T19:50:51.530Z,101385.28
2022-10-29T19:53:17.803Z,101385.28
2022-10-29T19:55:44.148Z,101385.06
2022-10-29T19:58:10.545Z,101392.91
2022-10-29T20:00:36.823Z,101390.47
2022-10-29T20:03:03.166Z,101383.38
2022-10-29T20:05:29.481Z,101387.16
2022-10-29T20:07:56.056Z,101385.28
2022-10-29T20:10:22.640Z,101383.66
2022-10-29T20:12:48.923Z,101382.19
2022-10-29T20:15:15.314Z,101385.50
2022-10-29T20:17:41.643Z,101376.56
2022-10-29T20:20:12.756Z,101378.25
2022-10-29T20:22:42.403Z,101373.88
2022-10-29T20:25:08.684Z,101386.56
2022-10-29T20:27:35.075Z,101388.44
2022-10-29T20:30:01.648Z,101392.22
2022-10-29T20:32:28.005Z,101385.94
2022-10-29T20:34:54.302Z,101381.41
2022-10-29T20:37:21.654Z,101382.44
2022-10-29T20:39:48.171Z,101374.31
2022-10-29T20:42:14.506Z,101368.09
2022-10-29T20:44:40.896Z,101366.44
2022-10-29T20:47:07.259Z,101371.00
2022-10-29T20:49:33.529Z,101362.91
2022-10-29T20:52:00.115Z,101366.91
2022-10-29T20:54:26.884Z,101359.63
2022-10-29T20:56:53.600Z,101355.25
2022-10-29T20:59:20.008Z,101356.69
2022-10-29T21:01:46.414Z,101357.75
2022-10-29T21:04:12.788Z,101362.34
2022-10-29T21:06:39.059Z,101356.94
2022-10-29T21:09:05.440Z,101381.25
2022-10-29T21:11:31.828Z,101375.84
2022-10-29T21:13:58.151Z,101387.69
2022-10-29T21:16:24.437Z,101389.56
2022-10-29T21:18:50.702Z,101395.78
2022-10-29T21:21:20.350Z,101394.97
2022-10-29T21:23:47.026Z,101393.09
2022-10-29T21:26:13.600Z,101393.09
2022-10-29T21:28:40.126Z,101391.44
2022-10-29T21:31:06.394Z,101398.75
2022-10-29T21:33:32.952Z,101398.97
2022-10-29T21:35:59.327Z,101397.69
2022-10-29T21:38:25.691Z,101400.63
2022-10-29T21:40:51.923Z,101393.56
2022-10-29T21:43:18.240Z,101386.50
2022-10-29T21:45:44.528Z,101387.09
2022-10-29T21:48:10.812Z,101382.75
2022-10-29T21:50:37.156Z,101387.94
2022-10-29T21:53:03.488Z,101382.75
2022-10-29T21:55:29.903Z,101390.66
2022-10-29T21:57:56.445Z,101396.50
2022-10-29T22:00:22.910Z,101395.44
2022-10-29T22:02:49.527Z,101398.13
2022-10-29T22:05:15.930Z,101396.28
2022-10-29T22:07:42.364Z,101396.50
2022-10-29T22:10:08.622Z,101398.13
2022-10-29T22:12:35.054Z,101395.44
2022-10-29T22:15:01.474Z,101402.72
2022-10-29T22:17:27.868Z,101387.34
2022-10-29T22:19:54.335Z,101398.97
2022-10-29T22:22:20.824Z,101388.16
2022-10-29T22:24:47.152Z,101398.97
2022-10-29T22:27:13.504Z,101400.84
2022-10-29T22:29:39.811Z,101401.91
2022-10-29T22:32:06.060Z,101403.53
2022-10-29T22:34:32.711Z,101396.50
2022-10-29T22:36:59.087Z,101390.03
2022-10-29T22:39:25.550Z,101378.38
2022-10-29T22:41:52.033Z,101383.00
2022-10-29T22:44:18.682Z,101373.00
2022-10-29T22:46:45.036Z,101365.16
2022-10-29T22:49:11.424Z,101358.69
2022-10-29T22:51:37.879Z,101357.03
2022-10-29T22:54:04.160Z,101360.53
2022-10-29T22:56:30.446Z,101363.25
2022-10-29T22:58:56.760Z,101359.97
2022-10-29T23:01:23.123Z,101355.38
2022-10-29T23:03:49.552Z,101361.59
2022-10-29T23:06:15.823Z,101363.75
2022-10-29T23:08:44.216Z,101373.00
2022-10-29T23:11:10.919Z,101362.66
2022-10-29T23:13:37.333Z,101356.22
2022-10-29T23:16:03.776Z,101364.31
2022-10-29T23:18:30.128Z,101357.03
2022-10-29T23:20:56.558Z,101348.09
2022-10-29T23:23:22.833Z,101355.38
2022-10-29T23:25:49.123Z,101362.66
2022-10-29T23:28:15.366Z,101374.53
2022-10-29T23:30:41.907Z,101381.34
2022-10-29T23:33:08.276Z,101386.97
2022-10-29T23:35:34.609Z,101385.09
2022-10-29T23:38:01.432Z,101386.97
2022-10-29T23:40:27.784Z,101378.03
2022-10-29T23:42:54.180Z,101381.59
2022-10-29T23:45:20.571Z,101385.34
2022-10-29T23:47:46.855Z,101377.25
2022-10-29T23:50:13.196Z,101384.50
2022-10-29T23:52:39.526Z,101384.28
2022-10-29T23:55:05.806Z,101384.50
2022-10-29T23:57:32.776Z,101386.97
2022-10-29T23:59:59.094Z,101387.22
